Time;durP1;ratioP1;P1;durP2;ratioP2;P2;SDS_P1;SDS_P2;PMS_P1;PMS_P2;Temp;Humidity;BMP_temperature;BMP_pressure;BME280_temperature;BME280_humidity;BME280_pressure;Samples;Min_cycle;Max_cycle;Signal;HPM_P1;HPM_P2
2022/01/21 00:02:19;;;;;;;3.00;0.30;;;;;;;1.00;66.56;101917.31;5032237;28;20482;-71
2022/01/21 00:04:45;;;;;;;0.20;0.20;;;;;;;1.04;65.82;101915.72;5030535;28;20033;-70
2022/01/21 00:07:10;;;;;;;2.75;0.43;;;;;;;1.15;65.67;101906.75;5026438;28;20037;-70
2022/01/21 00:09:36;;;;;;;0.20;0.20;;;;;;;1.14;65.60;101902.50;5017657;28;20033;-70
2022/01/21 00:12:01;;;;;;;0.38;0.30;;;;;;;1.12;65.43;101909.13;5031415;28;20668;-70
2022/01/21 00:14:27;;;;;;;0.20;0.20;;;;;;;1.10;66.18;101895.31;5024251;28;20033;-71
2022/01/21 00:16:52;;;;;;;1.23;0.20;;;;;;;1.06;66.59;101905.66;5035296;28;20037;-71
2022/01/21 00:19:18;;;;;;;0.20;0.20;;;;;;;1.16;65.96;101905.66;5026095;28;20040;-71
2022/01/21 00:30:14;;;;;;;1.20;0.30;;;;;;;0.99;68.16;101905.09;5029225;28;20401;-71
2022/01/21 00:32:48;;;;;;;0.55;0.55;;;;;;;1.00;67.86;101901.41;5020455;28;20441;-70
2022/01/21 00:35:14;;;;;;;0.30;0.30;;;;;;;1.13;67.03;101906.22;5026782;28;20037;-71
2022/01/21 00:37:40;;;;;;;0.22;0.22;;;;;;;1.11;67.43;101907.50;5018622;28;20040;-71
2022/01/21 00:40:10;;;;;;;0.63;0.47;;;;;;;1.00;67.75;101906.69;5024234;28;20080;-71
2022/01/21 00:45:11;;;;;;;0.25;0.25;;;;;;;0.93;68.59;101892.09;5030353;28;20033;-71
2022/01/21 00:47:37;;;;;;;0.85;0.60;;;;;;;1.03;68.26;101898.22;5024305;28;20033;-71
2022/01/21 00:50:03;;;;;;;1.10;0.50;;;;;;;1.11;68.34;101900.38;5028271;28;20043;-71
2022/01/21 00:52:29;;;;;;;0.20;0.20;;;;;;;1.19;67.34;101891.91;5021685;28;20029;-71
2022/01/21 00:54:54;;;;;;;0.20;0.20;;;;;;;1.14;68.81;101891.91;5024854;28;20100;-71
2022/01/21 00:57:20;;;;;;;0.80;0.40;;;;;;;1.26;67.58;101883.72;5010041;28;20033;-71
2022/01/21 00:59:46;;;;;;;0.20;0.20;;;;;;;0.97;69.42;101885.22;5010875;28;20073;-71
2022/01/21 01:02:11;;;;;;;0.10;0.10;;;;;;;1.23;69.05;101887.69;5028529;28;20040;-71
2022/01/21 01:04:37;;;;;;;0.30;0.30;;;;;;;1.10;69.52;101884.72;5029528;28;20034;-71
2022/01/21 01:07:03;;;;;;;0.10;0.10;;;;;;;1.14;69.78;101889.25;5016269;28;20124;-70
2022/01/21 01:09:28;;;;;;;0.20;0.20;;;;;;;1.20;69.60;101885.53;5016400;28;20033;-71
2022/01/21 01:20:00;;;;;;;0.30;0.30;;;;;;;0.96;72.07;101902.97;5016545;28;20084;-70
2022/01/21 01:23:23;;;;;;;0.20;0.17;;;;;;;1.11;71.45;101908.31;5022063;28;20084;-70
2022/01/21 01:28:04;;;;;;;1.42;0.52;;;;;;;0.87;72.82;101905.31;5026679;28;20029;-70
2022/01/21 01:30:32;;;;;;;0.55;0.40;;;;;;;0.86;73.22;101905.56;5023091;28;20033;-70
2022/01/21 01:33:00;;;;;;;0.32;0.17;;;;;;;0.92;72.80;101909.84;5013200;28;20037;-70
2022/01/21 01:35:30;;;;;;;0.25;0.25;;;;;;;0.99;72.86;101897.13;5018926;28;20050;-70
2022/01/21 01:51:11;;;;;;;1.27;0.30;;;;;;;0.79;75.23;101889.13;5014913;28;20091;-70
2022/01/21 01:53:44;;;;;;;0.95;0.45;;;;;;;0.74;75.63;101899.69;5022017;28;20069;-70
2022/01/21 01:56:12;;;;;;;0.20;0.20;;;;;;;0.75;75.57;101886.19;5012933;28;20052;-71
2022/01/21 01:58:40;;;;;;;0.52;0.52;;;;;;;0.78;75.63;101882.22;5024826;28;20038;-70
2022/01/21 02:01:07;;;;;;;0.30;0.30;;;;;;;0.76;75.39;101889.63;5027225;28;20033;-70
2022/01/21 02:03:34;;;;;;;0.30;0.30;;;;;;;0.90;75.36;101872.19;5026342;28;20030;-70
2022/01/21 02:06:00;;;;;;;0.15;0.15;;;;;;;0.91;74.90;101877.22;5012279;28;20026;-70
2022/01/21 02:08:27;;;;;;;0.20;0.20;;;;;;;0.75;76.20;101859.69;5015661;28;20117;-70
2022/01/21 02:10:52;;;;;;;2.28;0.43;;;;;;;0.71;76.97;101865.75;5015866;28;20032;-70
2022/01/21 02:13:22;;;;;;;0.22;0.22;;;;;;;0.67;77.13;101856.72;5023372;28;20041;-71
2022/01/21 02:16:07;;;;;;;1.23;1.13;;;;;;;0.69;77.93;101860.72;5029646;28;20039;-70
2022/01/21 02:21:37;;;;;;;0.22;0.22;;;;;;;0.71;78.27;101860.47;5028796;28;20037;-70
2022/01/21 02:24:31;;;;;;;0.40;0.25;;;;;;;0.67;78.61;101870.78;5026614;28;20041;-70
2022/01/21 02:26:59;;;;;;;2.03;0.65;;;;;;;0.65;80.18;101869.44;5026902;28;20037;-70
2022/01/21 02:29:43;;;;;;;0.50;0.50;;;;;;;0.66;80.11;101868.38;5025410;28;20037;-70
2022/01/21 02:32:08;;;;;;;0.20;0.20;;;;;;;0.62;81.45;101877.91;5021824;28;20033;-71
2022/01/21 02:34:34;;;;;;;0.52;0.40;;;;;;;0.63;81.76;101879.50;5029440;28;20036;-70
2022/01/21 02:36:59;;;;;;;0.50;0.50;;;;;;;0.67;81.23;101883.22;5030994;28;20464;-70
2022/01/21 02:39:24;;;;;;;1.08;0.65;;;;;;;0.59;82.42;101886.38;5032109;28;20045;-71
2022/01/21 02:41:50;;;;;;;3.50;0.75;;;;;;;0.61;82.20;101882.41;5007998;28;20030;-70
2022/01/21 02:44:18;;;;;;;0.75;0.73;;;;;;;0.55;82.43;101883.44;5033043;28;20030;-70
2022/01/21 02:46:46;;;;;;;0.20;0.20;;;;;;;0.78;82.07;101884.88;5031819;28;20033;-70
2022/01/21 02:49:15;;;;;;;0.57;0.57;;;;;;;0.73;81.61;101877.72;5027893;28;20045;-70
2022/01/21 02:51:41;;;;;;;0.55;0.20;;;;;;;0.65;82.87;101882.69;5029762;28;20021;-70
2022/01/21 02:54:06;;;;;;;0.20;0.20;;;;;;;0.59;83.51;101886.38;5030652;28;20513;-70
2022/01/21 02:56:34;;;;;;;0.20;0.20;;;;;;;0.57;83.87;101877.88;5032065;28;20033;-70
2022/01/21 02:59:00;;;;;;;0.32;0.30;;;;;;;0.56;84.43;101874.44;5024754;28;20036;-70
2022/01/21 03:01:26;;;;;;;1.27;0.25;;;;;;;0.58;84.52;101868.88;5028838;28;20040;-70
2022/01/21 03:03:53;;;;;;;0.35;0.30;;;;;;;0.56;85.27;101874.44;5031536;28;20494;-70
2022/01/21 03:06:22;;;;;;;0.45;0.40;;;;;;;0.59;85.08;101870.47;5031415;28;20036;-70
2022/01/21 03:08:49;;;;;;;1.23;0.38;;;;;;;0.64;85.64;101870.50;5032386;28;20528;-70
2022/01/21 03:11:16;;;;;;;0.20;0.20;;;;;;;0.60;85.92;101864.91;5027335;28;20497;-70
2022/01/21 03:13:43;;;;;;;0.30;0.30;;;;;;;0.70;85.92;101877.41;5033482;28;20025;-70
2022/01/21 03:16:08;;;;;;;11.85;0.40;;;;;;;0.86;85.31;101873.75;5033444;28;20095;-70
2022/01/21 03:18:34;;;;;;;1.25;0.30;;;;;;;0.95;85.11;101887.31;5021749;28;20025;-70
2022/01/21 03:21:00;;;;;;;0.20;0.20;;;;;;;0.95;86.41;101890.75;5029424;28;20120;-70
2022/01/21 03:23:27;;;;;;;0.25;0.25;;;;;;;1.06;85.57;101894.25;5031984;28;20037;-70
2022/01/21 03:25:53;;;;;;;0.10;0.10;;;;;;;0.96;86.93;101895.00;5028701;28;20072;-69
2022/01/21 03:28:34;;;;;;;0.25;0.25;;;;;;;0.96;87.83;101895.00;5024614;28;20506;-70
2022/01/21 03:31:00;;;;;;;2.47;0.30;;;;;;;0.97;88.01;101880.69;5026782;28;20044;-70
2022/01/21 03:33:27;;;;;;;0.30;0.30;;;;;;;0.99;88.46;101877.81;5015810;28;20030;-71
2022/01/21 03:35:53;;;;;;;0.80;0.30;;;;;;;1.13;88.06;101871.72;5025292;28;20044;-70
2022/01/21 03:38:24;;;;;;;1.17;0.52;;;;;;;1.11;88.41;101865.91;5022079;28;20030;-70
2022/01/21 03:40:49;;;;;;;0.20;0.20;;;;;;;1.06;89.25;101868.53;5030129;28;20049;-70
2022/01/21 03:43:15;;;;;;;0.25;0.25;;;;;;;1.03;89.57;101869.03;5032872;28;20556;-70
2022/01/21 03:45:41;;;;;;;0.77;0.60;;;;;;;1.02;89.78;101866.66;5029499;28;20510;-70
2022/01/21 03:48:06;;;;;;;0.30;0.30;;;;;;;1.04;90.20;101868.00;5015569;28;20026;-71
2022/01/21 03:50:32;;;;;;;0.28;0.28;;;;;;;1.27;89.54;101861.41;5030832;28;20021;-70
2022/01/21 03:53:01;;;;;;;0.20;0.20;;;;;;;1.21;89.85;101859.81;5027446;28;20029;-70
2022/01/21 03:55:30;;;;;;;1.88;0.35;;;;;;;1.00;90.48;101858.16;5011267;28;20033;-70
2022/01/21 03:57:55;;;;;;;0.30;0.30;;;;;;;0.97;91.21;101858.72;5021767;28;20038;-71
2022/01/21 04:00:30;;;;;;;0.25;0.20;;;;;;;0.97;90.90;101856.84;5029118;28;20056;-70
2022/01/21 04:02:56;;;;;;;2.28;0.63;;;;;;;0.93;91.00;101858.41;5032496;28;20033;-70
2022/01/21 04:05:25;;;;;;;1.02;0.60;;;;;;;1.00;91.36;101853.66;5027972;28;20513;-70
2022/01/21 04:07:51;;;;;;;0.30;0.30;;;;;;;1.10;90.84;101851.06;5030836;28;20032;-70
2022/01/21 04:10:17;;;;;;;0.40;0.40;;;;;;;1.16;90.47;101854.50;5023790;28;20026;-70
2022/01/21 04:12:43;;;;;;;0.30;0.30;;;;;;;1.16;90.13;101857.94;5011954;28;20036;-70
2022/01/21 04:15:09;;;;;;;0.75;0.47;;;;;;;1.11;90.09;101857.94;5020740;28;20431;-70
2022/01/21 04:17:35;;;;;;;0.22;0.22;;;;;;;1.05;90.42;101853.69;5033572;28;20437;-70
2022/01/21 04:20:02;;;;;;;0.10;0.10;;;;;;;1.11;90.78;101873.84;5012797;28;20038;-70
2022/01/21 04:22:28;;;;;;;0.38;0.30;;;;;;;1.13;89.84;101861.13;5019315;28;20121;-71
2022/01/21 04:24:55;;;;;;;0.25;0.25;;;;;;;1.06;90.50;101873.03;5026533;28;20121;-70
2022/01/21 04:27:20;;;;;;;0.70;0.30;;;;;;;1.06;91.34;101867.72;5028737;28;20033;-71
2022/01/21 04:29:46;;;;;;;0.20;0.20;;;;;;;1.13;91.00;101860.31;5012146;28;20080;-70
2022/01/21 04:32:15;;;;;;;4.00;0.32;;;;;;;1.11;91.29;101849.97;5028038;28;20120;-70
2022/01/21 04:34:42;;;;;;;1.77;0.47;;;;;;;1.05;90.96;101852.88;5029821;28;20433;-70
2022/01/21 04:37:10;;;;;;;0.32;0.30;;;;;;;1.04;91.75;101840.69;5029651;28;20030;-70
2022/01/21 04:39:54;;;;;;;0.22;0.22;;;;;;;1.00;92.10;101831.66;5023189;28;20037;-70
2022/01/21 04:47:35;;;;;;;0.32;0.32;;;;;;;1.11;92.13;101839.38;5016194;28;20494;-70
2022/01/21 04:50:09;;;;;;;0.50;0.50;;;;;;;1.06;92.44;101834.06;5013913;28;20112;-70
2022/01/21 04:52:36;;;;;;;0.30;0.30;;;;;;;1.02;92.35;101837.50;5037707;28;20180;-70
2022/01/21 04:55:14;;;;;;;0.73;0.22;;;;;;;1.09;91.98;101824.78;5021596;28;20042;-70
2022/01/21 04:57:40;;;;;;;1.50;0.40;;;;;;;1.12;92.48;101829.56;5026997;28;20026;-70
2022/01/21 05:00:07;;;;;;;0.13;0.13;;;;;;;1.04;92.88;101828.22;5035289;28;20030;-70
2022/01/21 05:02:36;;;;;;;0.60;0.60;;;;;;;1.05;92.71;101835.13;5024427;28;20037;-70
2022/01/21 05:05:05;;;;;;;0.40;0.40;;;;;;;1.15;92.47;101834.34;5026577;28;20120;-70
2022/01/21 05:07:35;;;;;;;0.10;0.10;;;;;;;1.24;93.27;101838.84;5024487;28;20114;-70
2022/01/21 05:10:02;;;;;;;0.22;0.22;;;;;;;1.21;92.86;101838.59;5026842;28;20029;-70
2022/01/21 05:12:29;;;;;;;0.98;0.57;;;;;;;1.19;93.82;101846.00;5018995;28;20025;-69
2022/01/21 05:17:26;;;;;;;;;;;;;;;1.27;94.69;101859.56;5025564;28;20029;-70
2022/01/21 05:19:52;;;;;;;0.10;0.10;;;;;;;1.42;95.37;101853.47;5028334;28;19916;-70
2022/01/21 05:22:36;;;;;;;0.20;0.20;;;;;;;1.48;95.29;101861.19;5018019;28;20033;-71
2022/01/21 05:25:03;;;;;;;0.17;0.17;;;;;;;1.54;96.27;101862.00;5012209;28;20026;-71
2022/01/21 05:27:29;;;;;;;1.95;0.40;;;;;;;1.58;96.38;101861.19;5019513;28;20034;-71
2022/01/21 05:29:56;;;;;;;0.22;0.20;;;;;;;1.57;96.73;101858.78;5024748;28;20083;-70
2022/01/21 05:32:23;;;;;;;0.32;0.32;;;;;;;1.77;96.74;101859.63;5035506;28;20057;-71
2022/01/21 05:35:05;;;;;;;0.10;0.10;;;;;;;1.79;96.92;101856.69;5017665;28;20075;-70
2022/01/21 05:37:49;;;;;;;0.85;0.30;;;;;;;1.80;96.95;101858.28;5027777;28;20493;-71
2022/01/21 05:40:33;;;;;;;0.10;0.10;;;;;;;1.83;97.16;101877.13;5027910;28;20974;-71
2022/01/21 05:43:19;;;;;;;0.52;0.40;;;;;;;1.93;96.80;101867.56;5024457;28;20540;-71
2022/01/21 05:46:25;;;;;;;5.05;0.68;;;;;;;1.99;96.78;101872.63;5018895;28;20045;-71
2022/01/21 05:49:07;;;;;;;9.30;0.60;;;;;;;1.74;97.70;101881.38;5025134;28;20025;-71
2022/01/21 05:52:01;;;;;;;0.20;0.20;;;;;;;1.82;97.64;101864.91;5010462;28;20141;-70
2022/01/21 05:55:06;;;;;;;0.20;0.20;;;;;;;1.87;97.21;101876.59;5005823;28;20486;-71
2022/01/21 05:57:45;;;;;;;0.05;0.05;;;;;;;1.85;97.11;101876.88;5025023;28;20038;-71
2022/01/21 06:00:14;;;;;;;0.45;0.30;;;;;;;1.93;96.94;101862.25;5018983;28;20545;-71
2022/01/21 06:02:45;;;;;;;6.25;0.47;;;;;;;1.96;95.86;101867.81;5023427;28;20049;-71
2022/01/21 06:05:13;;;;;;;0.40;0.40;;;;;;;1.89;96.17;101872.63;5019485;28;20392;-71
2022/01/21 06:07:40;;;;;;;0.20;0.20;;;;;;;1.77;96.49;101867.56;5018816;28;20091;-72
2022/01/21 06:10:07;;;;;;;0.50;0.50;;;;;;;1.90;96.21;101868.09;5015930;28;20482;-71
2022/01/21 06:12:32;;;;;;;0.15;0.15;;;;;;;1.84;95.98;101870.75;5017596;28;20033;-71
2022/01/21 06:14:58;;;;;;;2.33;0.35;;;;;;;1.89;96.10;101874.47;5022268;28;20045;-72
2022/01/21 06:17:23;;;;;;;0.28;0.28;;;;;;;1.91;95.47;101880.31;5025815;28;20036;-71
2022/01/21 06:19:50;;;;;;;2.33;0.50;;;;;;;1.91;95.27;101869.69;5015700;28;20041;-72
2022/01/21 06:22:16;;;;;;;0.20;0.20;;;;;;;2.00;94.67;101890.13;5027674;28;20164;-71
2022/01/21 06:24:42;;;;;;;0.20;0.20;;;;;;;1.87;95.03;101887.22;5026756;28;20037;-71
2022/01/21 06:27:08;;;;;;;1.05;0.70;;;;;;;1.82;95.12;101893.31;5029846;28;20041;-71
2022/01/21 06:29:33;;;;;;;0.17;0.17;;;;;;;1.85;94.65;101890.13;5031305;28;20042;-71
2022/01/21 06:31:59;;;;;;;1.95;0.43;;;;;;;1.91;94.64;101893.59;5023316;28;20059;-71
2022/01/21 06:34:24;;;;;;;1.73;0.20;;;;;;;1.86;94.19;101896.25;5015505;28;20470;-71
2022/01/21 06:36:50;;;;;;;0.17;0.17;;;;;;;1.66;94.68;101900.50;5012713;28;20022;-71
2022/01/21 06:39:15;;;;;;;0.70;0.30;;;;;;;1.68;95.36;101901.00;5017106;28;20069;-71
2022/01/21 06:41:42;;;;;;;0.80;0.45;;;;;;;1.78;94.75;101908.19;5012988;28;20034;-72
2022/01/21 06:44:07;;;;;;;0.10;0.10;;;;;;;1.76;94.16;101919.06;5024725;28;20060;-72
2022/01/21 06:46:33;;;;;;;0.20;0.20;;;;;;;1.75;93.17;101919.34;5031732;28;20030;-71
2022/01/21 06:48:58;;;;;;;0.60;0.40;;;;;;;1.67;93.40;101925.97;5031640;28;20081;-71
2022/01/21 06:51:24;;;;;;;4.28;0.28;;;;;;;1.70;92.93;101936.03;5021631;28;20062;-71
2022/01/21 06:53:49;;;;;;;0.30;0.30;;;;;;;1.72;91.81;101931.25;5028712;28;20037;-71
2022/01/21 06:56:15;;;;;;;0.30;0.30;;;;;;;1.74;91.10;101936.34;5028208;28;20038;-72
2022/01/21 06:58:40;;;;;;;1.55;0.43;;;;;;;1.73;90.30;101938.19;5034891;28;20040;-71
2022/01/21 07:01:06;;;;;;;0.30;0.30;;;;;;;1.66;89.55;101937.66;5031523;28;20033;-71
2022/01/21 07:03:31;;;;;;;0.75;0.32;;;;;;;1.73;89.06;101946.16;5031729;28;20034;-72
2022/01/21 07:05:57;;;;;;;0.43;0.20;;;;;;;1.69;88.51;101955.69;5028312;28;20040;-72
2022/01/21 07:08:22;;;;;;;7.88;0.75;;;;;;;1.75;87.33;101962.59;5030538;28;20033;-71
2022/01/21 07:10:47;;;;;;;2.25;0.70;;;;;;;1.66;86.94;101963.38;5026040;28;20029;-71
2022/01/21 07:13:14;;;;;;;0.20;0.20;;;;;;;1.75;86.38;101965.25;5020017;28;20041;-71
2022/01/21 07:15:39;;;;;;;0.20;0.20;;;;;;;1.71;85.84;101977.47;5022959;28;20433;-71
2022/01/21 07:18:05;;;;;;;0.40;0.40;;;;;;;1.79;85.03;101966.34;5032289;28;20038;-71
2022/01/21 07:20:31;;;;;;;0.10;0.10;;;;;;;1.63;84.97;101964.72;5035857;28;20107;-71
2022/01/21 07:22:57;;;;;;;0.43;0.38;;;;;;;1.62;85.67;101971.09;5029871;28;20033;-71
2022/01/21 07:25:27;;;;;;;0.10;0.10;;;;;;;1.68;85.13;101982.50;5018982;28;20037;-71
2022/01/21 07:27:52;;;;;;;0.10;0.10;;;;;;;1.68;85.06;101977.19;5024874;28;20030;-71
2022/01/21 07:30:18;;;;;;;0.20;0.20;;;;;;;1.79;84.47;101979.59;5030454;28;20036;-71
2022/01/21 07:32:43;;;;;;;0.38;0.30;;;;;;;1.65;84.87;101975.84;5032825;28;20120;-72
2022/01/21 07:35:10;;;;;;;0.10;0.10;;;;;;;1.62;84.87;101989.66;5032038;28;20037;-71
2022/01/21 07:37:37;;;;;;;0.20;0.20;;;;;;;1.76;84.15;101985.44;5021672;28;20037;-72
2022/01/21 07:40:04;;;;;;;0.10;0.10;;;;;;;1.68;84.22;101983.28;5031548;28;20172;-71
2022/01/21 07:42:29;;;;;;;0.13;0.13;;;;;;;1.69;84.40;101995.50;5028702;28;20052;-72
2022/01/21 07:44:55;;;;;;;0.28;0.28;;;;;;;1.71;84.88;101984.63;5014168;28;20033;-71
2022/01/21 07:47:20;;;;;;;0.20;0.20;;;;;;;1.68;84.76;101998.44;5025961;28;20025;-72
2022/01/21 07:49:46;;;;;;;0.22;0.22;;;;;;;1.66;84.77;101995.25;5029121;28;20497;-72
2022/01/21 07:52:12;;;;;;;2.13;0.40;;;;;;;1.66;84.87;102000.56;5027838;28;20048;-72
2022/01/21 07:54:37;;;;;;;0.20;0.20;;;;;;;1.77;84.07;101994.19;5014040;28;20405;-71
2022/01/21 07:57:03;;;;;;;0.15;0.15;;;;;;;1.68;84.28;101999.22;5024316;28;20037;-71
2022/01/21 07:59:29;;;;;;;2.90;0.60;;;;;;;1.72;83.94;102000.28;5032041;28;20037;-71
2022/01/21 08:01:54;;;;;;;0.20;0.20;;;;;;;1.74;83.79;102000.81;5031665;28;20046;-70
2022/01/21 08:04:19;;;;;;;0.30;0.30;;;;;;;1.74;83.95;102006.13;5015607;28;20037;-71
2022/01/21 08:06:45;;;;;;;1.98;0.30;;;;;;;1.74;83.73;101997.38;5017991;28;20065;-71
2022/01/21 08:09:11;;;;;;;0.10;0.10;;;;;;;1.89;83.16;102002.72;5013540;28;20029;-72
2022/01/21 08:11:36;;;;;;;0.17;0.17;;;;;;;2.00;82.04;102003.53;5025904;28;20496;-71
2022/01/21 08:14:02;;;;;;;0.30;0.30;;;;;;;2.06;81.55;102018.41;5022135;28;20621;-71
2022/01/21 08:16:27;;;;;;;0.40;0.40;;;;;;;2.11;81.37;102016.53;5005888;28;20085;-72
2022/01/21 08:18:54;;;;;;;1.10;0.45;;;;;;;2.06;81.66;102031.69;5017472;28;20041;-71
2022/01/21 08:21:20;;;;;;;0.30;0.30;;;;;;;2.05;82.04;102024.78;5028398;28;20112;-72
2022/01/21 08:23:51;;;;;;;0.20;0.20;;;;;;;2.15;81.62;102017.63;5023253;28;20030;-72
2022/01/21 08:26:24;;;;;;;0.20;0.20;;;;;;;2.14;81.33;102033.81;5029983;28;20120;-71
2022/01/21 08:28:51;;;;;;;0.65;0.32;;;;;;;2.12;81.27;102020.00;5020648;28;20363;-72
2022/01/21 08:31:18;;;;;;;0.10;0.10;;;;;;;2.08;81.60;102029.56;5030383;28;20040;-71
2022/01/21 08:33:44;;;;;;;0.45;0.45;;;;;;;2.05;81.53;102014.97;5028280;28;20137;-71
2022/01/21 08:36:10;;;;;;;5.68;0.30;;;;;;;2.12;81.46;102023.47;5013873;28;20096;-71
2022/01/21 08:38:36;;;;;;;0.15;0.15;;;;;;;2.03;81.88;102034.88;5020018;28;20034;-71
2022/01/21 08:41:02;;;;;;;0.45;0.28;;;;;;;2.02;81.54;102043.88;5024460;28;20037;-71
2022/01/21 08:43:28;;;;;;;0.10;0.10;;;;;;;2.16;81.16;102044.97;5026717;28;20034;-71
2022/01/21 08:45:53;;;;;;;0.10;0.10;;;;;;;2.42;79.93;102041.31;5032760;28;20089;-70
2022/01/21 08:48:18;;;;;;;0.52;0.32;;;;;;;2.46;79.50;102043.13;5017580;28;20041;-71
2022/01/21 08:50:44;;;;;;;0.10;0.10;;;;;;;2.36;80.45;102047.66;5021340;28;20041;-71
2022/01/21 08:53:36;;;;;;;2.28;1.13;;;;;;;2.49;79.63;102055.09;5031369;28;20479;-71
2022/01/21 08:55:55;;;;;;;0.75;0.75;;;;;;;2.57;78.99;102057.25;5019155;28;20479;-71
2022/01/21 08:58:21;;;;;;;1.05;0.20;;;;;;;2.56;78.42;102052.97;5010061;28;20041;-70
2022/01/21 09:00:46;;;;;;;1.00;0.50;;;;;;;2.67;77.66;102052.69;5019416;28;20044;-71
2022/01/21 09:03:12;;;;;;;9.43;0.30;;;;;;;2.68;77.59;102050.84;5023752;28;20037;-71
2022/01/21 09:05:37;;;;;;;0.25;0.20;;;;;;;2.65;77.86;102048.75;5022107;28;20394;-71
2022/01/21 09:08:03;;;;;;;0.10;0.10;;;;;;;2.87;76.44;102049.22;5010679;28;20045;-71
2022/01/21 09:10:31;;;;;;;0.10;0.10;;;;;;;3.05;74.72;102051.31;5011047;28;20069;-71
2022/01/21 09:12:57;;;;;;;0.73;0.40;;;;;;;3.06;75.31;102050.25;5023490;28;20387;-71
2022/01/21 09:15:25;;;;;;;0.10;0.10;;;;;;;3.20;74.03;102040.63;5029218;28;20048;-71
2022/01/21 09:17:52;;;;;;;0.47;0.35;;;;;;;3.34;72.74;102047.00;5030348;28;20044;-71
2022/01/21 09:20:18;;;;;;;0.20;0.20;;;;;;;3.39;72.54;102044.28;5011911;28;20072;-71
2022/01/21 09:22:43;;;;;;;0.22;0.22;;;;;;;3.50;71.18;102048.50;5028745;28;20069;-71
2022/01/21 09:25:09;;;;;;;0.47;0.30;;;;;;;3.46;71.67;102052.81;5023244;28;20040;-71
2022/01/21 09:27:35;;;;;;;0.32;0.32;;;;;;;3.47;71.77;102062.38;5025893;28;20609;-71
2022/01/21 09:30:01;;;;;;;0.28;0.28;;;;;;;3.56;70.86;102071.38;5019546;28;20043;-72
2022/01/21 09:32:26;;;;;;;0.63;0.43;;;;;;;3.61;70.68;102074.03;5034491;28;20033;-72
2022/01/21 09:34:52;;;;;;;0.57;0.25;;;;;;;3.65;69.94;102067.09;5036029;28;20041;-72
2022/01/21 09:37:17;;;;;;;0.10;0.10;;;;;;;3.71;68.87;102075.06;5025117;28;20037;-72
2022/01/21 09:39:43;;;;;;;0.52;0.52;;;;;;;3.76;68.55;102078.50;5030274;28;20391;-71
2022/01/21 09:42:12;;;;;;;0.68;0.40;;;;;;;3.76;68.62;102075.03;5033814;28;20379;-72
2022/01/21 09:44:39;;;;;;;0.30;0.25;;;;;;;3.92;67.55;102077.34;5031760;28;20036;-72
2022/01/21 09:47:04;;;;;;;0.20;0.20;;;;;;;3.94;67.26;102080.53;5025181;28;20717;-72
2022/01/21 09:49:30;;;;;;;0.25;0.25;;;;;;;3.96;67.73;102077.59;5027492;28;20037;-71
2022/01/21 09:51:59;;;;;;;0.20;0.20;;;;;;;4.12;66.15;102076.44;5019328;28;20112;-72
2022/01/21 09:54:34;;;;;;;2.60;0.60;;;;;;;4.03;66.73;102075.41;5012996;28;20494;-71
2022/01/21 09:57:01;;;;;;;0.20;0.20;;;;;;;4.22;64.82;102079.06;5012214;28;20037;-72
2022/01/21 09:59:30;;;;;;;0.55;0.55;;;;;;;4.29;64.27;102071.53;5017929;28;20026;-72
2022/01/21 10:02:00;;;;;;;0.85;0.68;;;;;;;4.31;64.80;102083.50;5013139;28;20065;-71
2022/01/21 10:04:31;;;;;;;0.40;0.40;;;;;;;4.40;64.55;102089.03;5012847;28;20038;-71
2022/01/21 10:07:00;;;;;;;3.63;0.68;;;;;;;4.49;63.65;102082.84;5021765;28;20033;-72
2022/01/21 10:09:26;;;;;;;3.50;0.43;;;;;;;4.44;64.02;102079.41;5023994;28;20037;-72
2022/01/21 10:11:54;;;;;;;0.90;0.50;;;;;;;4.41;64.15;102074.66;5028898;28;20116;-71
2022/01/21 10:14:23;;;;;;;2.35;0.45;;;;;;;4.59;63.50;102081.97;5029865;28;20044;-73
2022/01/21 10:16:49;;;;;;;0.55;0.45;;;;;;;4.58;62.98;102085.72;5027689;28;20033;-72
2022/01/21 10:19:23;;;;;;;0.10;0.10;;;;;;;4.58;62.79;102083.84;5024527;28;20047;-72
2022/01/21 10:21:57;;;;;;;1.08;0.40;;;;;;;4.56;62.37;102083.34;5027808;28;20373;-72
2022/01/21 10:24:23;;;;;;;0.20;0.20;;;;;;;4.57;62.45;102090.25;5029972;28;20056;-72
2022/01/21 10:26:51;;;;;;;0.20;0.20;;;;;;;4.71;61.45;102090.41;5028486;28;20034;-72
2022/01/21 10:29:17;;;;;;;0.32;0.32;;;;;;;4.66;61.42;102103.00;5022289;28;20088;-73
2022/01/21 10:31:58;;;;;;;0.20;0.20;;;;;;;4.76;61.31;102101.06;5020733;28;20033;-71
2022/01/21 10:34:26;;;;;;;4.55;0.90;;;;;;;4.81;60.82;102106.34;5014226;28;20092;-72
2022/01/21 10:36:57;;;;;;;0.75;0.40;;;;;;;4.86;61.19;102105.50;5025474;28;20390;-72
2022/01/21 10:39:32;;;;;;;1.25;0.32;;;;;;;4.81;61.41;102108.19;5027996;28;20529;-72
2022/01/21 10:41:59;;;;;;;0.95;0.30;;;;;;;4.86;61.32;102100.94;5024865;28;20056;-72
2022/01/21 10:44:30;;;;;;;6.03;0.32;;;;;;;4.96;60.02;102095.50;5028919;28;20601;-73
2022/01/21 10:47:08;;;;;;;0.38;0.20;;;;;;;4.93;60.39;102097.94;5028356;28;20444;-73
2022/01/21 10:49:39;;;;;;;0.20;0.20;;;;;;;4.92;61.17;102102.50;5021431;28;20095;-71
2022/01/21 10:52:10;;;;;;;0.20;0.20;;;;;;;4.99;61.17;102108.31;5015664;28;20453;-73
2022/01/21 10:54:47;;;;;;;0.17;0.17;;;;;;;5.06;60.50;102108.78;5021649;28;20044;-72
2022/01/21 10:57:15;;;;;;;0.68;0.40;;;;;;;4.99;61.71;102096.84;5024348;28;20045;-73
2022/01/21 10:59:50;;;;;;;0.50;0.50;;;;;;;5.08;62.61;102098.59;5008594;28;20041;-72
2022/01/21 11:02:40;;;;;;;0.43;0.30;;;;;;;5.08;62.61;102095.13;5021590;28;20037;-73
2022/01/21 11:05:16;;;;;;;1.10;0.50;;;;;;;5.02;63.59;102102.41;5021311;28;20068;-72
2022/01/21 11:07:45;;;;;;;0.10;0.10;;;;;;;5.05;64.00;102101.81;5015935;28;20049;-71
2022/01/21 11:10:36;;;;;;;0.22;0.22;;;;;;;5.15;63.88;102101.72;5018318;28;20042;-72
2022/01/21 11:13:13;;;;;;;0.57;0.30;;;;;;;5.17;64.92;102098.78;5019341;28;20117;-72
2022/01/21 11:15:41;;;;;;;3.83;0.35;;;;;;;5.14;65.56;102099.34;5021481;28;20072;-72
2022/01/21 11:18:08;;;;;;;0.15;0.15;;;;;;;5.12;65.92;102088.97;5019008;28;20491;-72
2022/01/21 11:20:38;;;;;;;0.30;0.30;;;;;;;5.18;65.83;102097.72;5029866;28;20033;-72
2022/01/21 11:23:05;;;;;;;0.38;0.35;;;;;;;5.18;66.13;102089.69;5038783;28;20413;-72
2022/01/21 11:25:49;;;;;;;0.55;0.55;;;;;;;5.26;65.93;102079.22;5017899;28;20034;-72
2022/01/21 11:28:25;;;;;;;0.32;0.30;;;;;;;5.23;67.09;102084.28;5023099;28;20064;-72
2022/01/21 11:30:52;;;;;;;0.40;0.40;;;;;;;5.17;67.62;102083.56;5025596;28;20193;-72
2022/01/21 11:33:19;;;;;;;0.28;0.22;;;;;;;5.31;67.51;102084.47;5022146;28;20045;-72
2022/01/21 11:35:47;;;;;;;0.70;0.70;;;;;;;5.38;67.47;102081.47;5024320;28;20454;-72
2022/01/21 11:38:13;;;;;;;0.22;0.20;;;;;;;5.44;67.69;102078.44;5016091;28;20049;-72
2022/01/21 11:40:40;;;;;;;0.35;0.20;;;;;;;5.44;68.22;102077.66;5023178;28;20048;-72
2022/01/21 11:43:09;;;;;;;3.22;1.17;;;;;;;5.42;69.24;102080.59;5028090;28;20053;-72
2022/01/21 11:50:42;;;;;;;1.55;0.40;;;;;;;5.52;70.30;102063.66;5026536;28;20037;-72
2022/01/21 11:53:08;;;;;;;0.22;0.13;;;;;;;5.50;71.58;102069.31;5026926;28;20037;-72
2022/01/21 11:55:41;;;;;;;1.33;0.40;;;;;;;5.59;72.06;102074.81;5027030;28;20409;-72
2022/01/21 11:58:23;;;;;;;4.18;0.28;;;;;;;5.72;72.65;102074.13;5027886;28;20148;-73
2022/01/21 12:00:50;;;;;;;2.75;0.30;;;;;;;5.70;74.27;102067.47;5027747;28;20039;-72
2022/01/21 12:03:19;;;;;;;0.10;0.10;;;;;;;5.80;74.34;102067.34;5023986;28;20044;-73
2022/01/21 12:05:45;;;;;;;0.57;0.57;;;;;;;5.79;75.92;102060.41;5030580;28;20070;-73
2022/01/21 12:08:11;;;;;;;2.63;0.20;;;;;;;5.78;76.29;102056.94;5029856;28;20458;-73
2022/01/21 12:10:37;;;;;;;0.20;0.20;;;;;;;5.79;76.33;102053.16;5009442;28;20040;-73
2022/01/21 12:13:08;;;;;;;5.00;0.20;;;;;;;5.83;76.91;102043.53;5017293;28;20038;-73
2022/01/21 12:15:39;;;;;;;0.20;0.20;;;;;;;5.94;78.07;102046.88;5018603;28;20041;-73
2022/01/21 12:18:08;;;;;;;;;;;;;;;5.84;78.09;102042.47;5021797;28;20033;-73
2022/01/21 12:20:35;;;;;;;0.60;0.38;;;;;;;5.93;78.66;102038.03;5015587;28;20646;-73
2022/01/21 12:23:14;;;;;;;0.28;0.28;;;;;;;5.99;78.88;102041.44;5030853;28;20025;-73
2022/01/21 12:26:08;;;;;;;0.93;0.30;;;;;;;5.95;80.42;102027.84;5025493;28;20041;-73
2022/01/21 12:28:33;;;;;;;0.95;0.70;;;;;;;6.00;80.32;102022.44;5019219;28;20038;-72
2022/01/21 12:30:59;;;;;;;2.95;0.40;;;;;;;6.08;80.79;102020.97;5019707;28;20371;-72
2022/01/21 12:33:50;;;;;;;0.32;0.30;;;;;;;6.18;80.61;102018.16;5019501;28;20577;-73